createdAt,value
2017-11-09T00:02:17.548Z,21.90
2017-11-09T00:04:50.635Z,23.00
2017-11-09T00:07:18.072Z,20.37
2017-11-09T00:09:45.512Z,17.27
2017-11-09T00:12:12.982Z,21.07
2017-11-09T00:14:40.390Z,22.53
2017-11-09T00:17:08.042Z,20.60
2017-11-09T00:19:35.474Z,22.27
2017-11-09T00:22:02.908Z,18.80
2017-11-09T00:24:31.032Z,18.50
2017-11-09T00:26:58.617Z,18.03
2017-11-09T00:29:26.062Z,19.57
2017-11-09T00:31:53.498Z,18.23
2017-11-09T00:34:20.902Z,22.63
2017-11-09T00:36:48.342Z,18.73
2017-11-09T00:39:15.776Z,15.83
2017-11-09T00:41:43.255Z,20.23
2017-11-09T00:44:10.675Z,22.10
2017-11-09T00:46:38.132Z,19.10
2017-11-09T00:49:05.566Z,20.37
2017-11-09T00:51:33.004Z,17.03
2017-11-09T00:54:00.455Z,15.40
2017-11-09T00:56:27.864Z,17.60
2017-11-09T00:58:55.342Z,18.20
2017-11-09T01:01:22.753Z,17.57
2017-11-09T01:03:50.526Z,19.90
2017-11-09T01:06:17.936Z,18.43
2017-11-09T01:08:45.390Z,16.80
2017-11-09T01:11:12.841Z,17.73
2017-11-09T01:13:40.271Z,20.20
2017-11-09T01:16:07.678Z,18.20
2017-11-09T01:18:35.104Z,19.00
2017-11-09T01:21:02.547Z,17.70
2017-11-09T01:23:29.960Z,14.33
2017-11-09T01:25:57.421Z,19.93
2017-11-09T01:28:24.828Z,15.20
2017-11-09T01:30:52.268Z,14.13
2017-11-09T01:33:19.690Z,15.27
2017-11-09T01:35:47.120Z,15.73
2017-11-09T01:38:14.576Z,14.90
2017-11-09T01:40:42.090Z,12.17
2017-11-09T01:43:09.492Z,19.40
2017-11-09T01:45:36.907Z,20.23
2017-11-09T01:48:04.350Z,17.37
2017-11-09T01:50:31.782Z,23.50
2017-11-09T01:52:59.225Z,21.67
2017-11-09T01:55:26.798Z,22.20
2017-11-09T01:57:54.208Z,21.73
2017-11-09T02:00:21.623Z,24.70
2017-11-09T02:02:49.091Z,16.47
2017-11-09T02:05:16.525Z,20.10
2017-11-09T02:07:43.985Z,20.10
2017-11-09T02:10:11.403Z,19.97
2017-11-09T02:12:38.802Z,22.17
2017-11-09T02:15:06.244Z,22.57
2017-11-09T02:17:33.742Z,19.20
2017-11-09T02:20:01.166Z,18.50
2017-11-09T02:22:28.565Z,21.50
2017-11-09T02:24:56.164Z,23.50
2017-11-09T02:27:23.619Z,21.47
2017-11-09T02:29:51.210Z,20.80
2017-11-09T02:32:18.650Z,25.20
2017-11-09T02:34:46.051Z,21.97
2017-11-09T02:37:13.488Z,19.97
2017-11-09T02:39:40.873Z,20.10
2017-11-09T02:42:08.305Z,26.10
2017-11-09T02:44:35.730Z,23.23
2017-11-09T02:47:03.185Z,21.10
2017-11-09T02:49:30.584Z,21.00
2017-11-09T02:51:58.040Z,23.33
2017-11-09T02:54:30.203Z,24.10
2017-11-09T02:56:58.448Z,22.80
2017-11-09T02:59:31.457Z,26.03
2017-11-09T03:01:58.885Z,21.43
2017-11-09T03:04:26.325Z,24.60
2017-11-09T03:06:53.724Z,23.20
2017-11-09T03:09:21.154Z,24.33
2017-11-09T03:11:48.552Z,24.77
2017-11-09T03:14:15.990Z,22.80
2017-11-09T03:16:43.427Z,25.47
2017-11-09T03:19:10.867Z,27.53
2017-11-09T03:21:38.269Z,24.63
2017-11-09T03:24:05.927Z,24.67
2017-11-09T03:26:33.360Z,22.77
2017-11-09T03:29:00.769Z,25.80
2017-11-09T03:31:28.252Z,23.80
2017-11-09T03:33:55.650Z,29.37
2017-11-09T03:36:23.085Z,20.43
2017-11-09T03:38:50.528Z,26.30
2017-11-09T03:41:17.976Z,26.27
2017-11-09T03:43:45.376Z,28.77
2017-11-09T03:46:12.810Z,27.53
2017-11-09T03:48:40.209Z,31.37
2017-11-09T03:51:07.619Z,26.57
2017-11-09T03:53:35.039Z,31.13
2017-11-09T03:56:02.441Z,32.07
2017-11-09T03:58:29.857Z,28.60
2017-11-09T04:00:57.328Z,29.23
2017-11-09T04:03:24.736Z,28.87
2017-11-09T04:05:52.146Z,31.17
2017-11-09T04:08:20.253Z,28.40
2017-11-09T04:10:47.660Z,27.90
2017-11-09T04:13:15.092Z,29.03
2017-11-09T04:15:42.525Z,27.40
2017-11-09T04:18:09.971Z,32.43
2017-11-09T04:20:37.403Z,34.60
2017-11-09T04:23:05.070Z,29.37
2017-11-09T04:25:32.485Z,29.10
2017-11-09T04:27:59.902Z,33.37
2017-11-09T04:30:27.329Z,34.17
2017-11-09T04:32:54.725Z,28.57
2017-11-09T04:35:22.182Z,31.67
2017-11-09T04:37:49.597Z,36.20
2017-11-09T04:40:17.030Z,33.60
2017-11-09T04:42:44.437Z,37.40
2017-11-09T04:45:13.064Z,34.20
2017-11-09T04:47:40.493Z,32.33
2017-11-09T04:50:07.918Z,31.97
2017-11-09T04:52:35.321Z,33.63
2017-11-09T04:55:02.737Z,47.07
2017-11-09T04:57:30.164Z,27.73
2017-11-09T04:59:57.558Z,32.47
2017-11-09T05:02:24.987Z,31.40
2017-11-09T05:04:52.417Z,30.07
2017-11-09T05:07:19.854Z,29.67
2017-11-09T05:09:47.430Z,33.60
2017-11-09T05:12:14.852Z,32.83
2017-11-09T05:14:42.281Z,28.90
2017-11-09T05:17:09.681Z,33.00
2017-11-09T05:19:37.129Z,30.60
2017-11-09T05:22:04.525Z,29.23
2017-11-09T05:24:31.955Z,25.30
2017-11-09T05:26:59.392Z,25.93
2017-11-09T05:29:26.823Z,28.50
2017-11-09T05:31:55.321Z,26.20
2017-11-09T05:34:22.745Z,25.30
2017-11-09T05:36:50.164Z,22.97
2017-11-09T05:39:17.585Z,28.97
2017-11-09T05:41:44.996Z,23.33
2017-11-09T05:44:12.447Z,20.90
2017-11-09T05:46:39.891Z,21.30
2017-11-09T05:49:07.280Z,27.50
2017-11-09T05:51:34.694Z,27.50
2017-11-09T05:54:02.088Z,27.07
2017-11-09T05:56:29.525Z,25.67
2017-11-09T05:58:56.944Z,23.27
2017-11-09T06:01:24.368Z,29.63
2017-11-09T06:03:51.858Z,28.13
2017-11-09T06:06:19.291Z,24.33
2017-11-09T06:08:46.735Z,28.73
2017-11-09T06:11:14.143Z,32.43
2017-11-09T06:13:41.572Z,22.50
2017-11-09T06:16:08.982Z,23.47
2017-11-09T06:18:36.449Z,20.23
2017-11-09T06:21:03.855Z,21.33
2017-11-09T06:23:31.347Z,21.20
2017-11-09T06:26:01.425Z,20.57
2017-11-09T06:28:28.818Z,22.43
2017-11-09T06:30:56.239Z,19.43
2017-11-09T06:33:23.636Z,18.40
2017-11-09T06:35:51.069Z,20.20
2017-11-09T06:38:18.477Z,16.53
2017-11-09T06:40:45.928Z,18.13
2017-11-09T06:43:13.642Z,21.07
2017-11-09T06:45:41.086Z,17.73
2017-11-09T06:48:09.064Z,18.03
2017-11-09T06:50:36.506Z,15.20
2017-11-09T06:53:03.985Z,21.63
2017-11-09T06:55:31.374Z,15.83
2017-11-09T06:57:58.794Z,21.50
2017-11-09T07:00:26.275Z,21.43
2017-11-09T07:02:53.732Z,22.80
2017-11-09T07:05:21.195Z,19.47
2017-11-09T07:07:48.615Z,16.63
2017-11-09T07:10:16.064Z,21.40
2017-11-09T07:12:43.494Z,17.90
2017-11-09T07:15:11.590Z,19.07
2017-11-09T07:17:39.006Z,16.17
2017-11-09T07:20:06.429Z,17.50
2017-11-09T07:22:33.961Z,20.50
2017-11-09T07:25:01.416Z,15.47
2017-11-09T07:27:28.900Z,19.00
2017-11-09T07:29:56.681Z,21.90
2017-11-09T07:32:25.222Z,16.40
2017-11-09T07:34:53.463Z,19.50
2017-11-09T07:37:20.920Z,20.40
2017-11-09T07:39:48.381Z,15.77
2017-11-09T07:42:15.793Z,20.17
2017-11-09T07:44:43.231Z,18.60
2017-11-09T07:47:10.664Z,18.60
2017-11-09T07:49:38.283Z,16.60
2017-11-09T07:52:05.701Z,16.90
2017-11-09T07:54:33.197Z,14.33
2017-11-09T07:57:00.602Z,17.30
2017-11-09T07:59:28.034Z,17.23
2017-11-09T08:01:55.523Z,17.83
2017-11-09T08:04:22.952Z,13.87
2017-11-09T08:06:50.405Z,16.60
2017-11-09T08:09:17.856Z,14.80
2017-11-09T08:11:45.321Z,13.57
2017-11-09T08:14:12.766Z,14.27
2017-11-09T08:16:40.896Z,15.90
2017-11-09T08:19:08.324Z,14.23
2017-11-09T08:21:35.741Z,13.33
2017-11-09T08:24:04.774Z,14.83
2017-11-09T08:26:33.056Z,19.17
2017-11-09T08:29:01.661Z,15.33
2017-11-09T08:31:32.277Z,10.43
2017-11-09T08:34:01.976Z,14.30
2017-11-09T08:36:29.364Z,15.47
2017-11-09T08:38:56.817Z,21.17
2017-11-09T08:41:24.245Z,13.63
2017-11-09T08:43:51.796Z,16.37
2017-11-09T08:46:19.190Z,14.20
2017-11-09T08:48:46.634Z,14.17
2017-11-09T08:51:14.069Z,13.10
2017-11-09T08:53:41.500Z,14.13
2017-11-09T08:56:09.620Z,14.67
2017-11-09T08:58:37.062Z,15.23
2017-11-09T09:01:04.485Z,11.47
2017-11-09T09:03:31.887Z,10.53
2017-11-09T09:05:59.321Z,15.33
2017-11-09T09:08:26.712Z,13.33
2017-11-09T09:10:54.248Z,14.33
2017-11-09T09:13:24.535Z,14.40
2017-11-09T09:15:52.076Z,15.63
2017-11-09T09:18:19.528Z,14.23
2017-11-09T09:21:04.672Z,14.67
2017-11-09T09:23:32.792Z,13.43
2017-11-09T09:26:15.972Z,11.13
2017-11-09T09:28:59.210Z,17.40
2017-11-09T09:31:26.648Z,12.97
2017-11-09T09:33:58.200Z,12.70
2017-11-09T09:36:29.131Z,13.77
2017-11-09T09:38:59.757Z,10.87
2017-11-09T09:41:27.204Z,16.30
2017-11-09T09:43:54.630Z,13.30
2017-11-09T09:46:22.041Z,9.90
2017-11-09T09:48:49.469Z,12.60
2017-11-09T09:51:16.869Z,18.03
2017-11-09T09:53:44.293Z,15.60
2017-11-09T09:56:11.705Z,12.17
2017-11-09T09:58:39.165Z,12.97
2017-11-09T10:01:06.574Z,16.10
2017-11-09T10:03:34.019Z,15.30
2017-11-09T10:06:01.416Z,14.03
2017-11-09T10:08:28.823Z,11.90
2017-11-09T10:10:56.276Z,20.30
2017-11-09T10:13:23.694Z,12.90
2017-11-09T10:15:51.673Z,15.97
2017-11-09T10:18:19.118Z,13.60
2017-11-09T10:20:46.537Z,15.23
2017-11-09T10:23:14.278Z,11.70
2017-11-09T10:25:41.717Z,14.77
2017-11-09T10:28:11.038Z,14.10
2017-11-09T10:30:38.469Z,11.60
2017-11-09T10:33:05.904Z,9.83
2017-11-09T10:35:33.369Z,11.53
2017-11-09T10:38:00.838Z,10.70
2017-11-09T10:40:28.245Z,13.57
2017-11-09T10:42:55.656Z,12.80
2017-11-09T10:45:23.158Z,15.17
2017-11-09T10:47:50.596Z,13.67
2017-11-09T10:50:18.029Z,11.13
2017-11-09T10:52:45.463Z,12.50
2017-11-09T10:55:12.906Z,16.50
2017-11-09T10:57:40.353Z,11.20
2017-11-09T11:00:07.779Z,12.40
2017-11-09T11:02:35.224Z,15.97
2017-11-09T11:05:02.660Z,14.10
2017-11-09T11:07:30.057Z,12.17
2017-11-09T11:09:57.479Z,15.03
2017-11-09T11:12:24.881Z,12.60
2017-11-09T11:14:52.310Z,12.33
2017-11-09T11:17:19.770Z,15.80
2017-11-09T11:19:47.178Z,15.83
2017-11-09T11:22:14.613Z,16.73
2017-11-09T11:24:42.007Z,14.73
2017-11-09T11:27:09.471Z,14.17
2017-11-09T11:29:36.883Z,13.50
2017-11-09T11:32:05.249Z,14.80
2017-11-09T11:34:32.700Z,15.97
2017-11-09T11:37:00.101Z,15.53
2017-11-09T11:39:28.024Z,18.90
2017-11-09T11:41:55.429Z,16.20
2017-11-09T11:44:22.857Z,16.57
2017-11-09T11:46:50.317Z,14.63
2017-11-09T11:49:17.905Z,14.00
2017-11-09T11:51:45.293Z,14.60
2017-11-09T11:54:12.761Z,14.30
2017-11-09T11:56:40.160Z,16.23
2017-11-09T11:59:07.628Z,15.67
2017-11-09T12:01:35.041Z,18.00
2017-11-09T12:04:03.298Z,18.07
2017-11-09T12:06:30.731Z,14.73
2017-11-09T12:08:58.121Z,19.57
2017-11-09T12:11:25.567Z,14.80
2017-11-09T12:13:52.992Z,16.40
2017-11-09T12:16:21.066Z,28.20
2017-11-09T12:18:48.466Z,20.03
2017-11-09T12:21:15.876Z,22.47
2017-11-09T12:23:43.320Z,18.30
2017-11-09T12:26:10.790Z,17.97
2017-11-09T12:28:38.226Z,16.77
2017-11-09T12:31:05.629Z,18.50
2017-11-09T12:33:33.125Z,22.37
2017-11-09T12:36:00.530Z,20.00
2017-11-09T12:38:27.973Z,18.97
2017-11-09T12:40:55.382Z,17.47
2017-11-09T12:43:22.816Z,19.27
2017-11-09T12:45:50.244Z,17.20
2017-11-09T12:48:17.717Z,21.20
2017-11-09T12:50:45.156Z,19.57
2017-11-09T12:53:12.877Z,17.30
2017-11-09T12:55:40.323Z,20.43
2017-11-09T12:58:07.728Z,19.17
2017-11-09T13:00:35.279Z,16.30
2017-11-09T13:03:02.701Z,18.93
2017-11-09T13:05:30.157Z,20.23
2017-11-09T13:07:57.584Z,17.20
2017-11-09T13:10:25.951Z,21.47
2017-11-09T13:12:53.482Z,20.10
2017-11-09T13:15:20.906Z,22.37
2017-11-09T13:17:48.333Z,24.53
2017-11-09T13:20:15.788Z,19.50
2017-11-09T13:22:43.990Z,20.83
2017-11-09T13:25:11.435Z,19.13
2017-11-09T13:27:38.853Z,25.37
2017-11-09T13:30:06.339Z,19.20
2017-11-09T13:32:33.749Z,29.40
2017-11-09T13:35:01.178Z,19.37
2017-11-09T13:37:28.785Z,20.93
2017-11-09T13:39:56.180Z,21.23
2017-11-09T13:42:23.613Z,25.03
2017-11-09T13:44:51.143Z,27.40
2017-11-09T13:47:18.630Z,21.23
2017-11-09T13:49:46.284Z,21.97
2017-11-09T13:52:13.688Z,30.03
2017-11-09T13:54:41.168Z,27.17
2017-11-09T13:57:08.561Z,27.80
2017-11-09T13:59:35.996Z,24.90
2017-11-09T14:02:03.445Z,26.10
2017-11-09T14:04:30.890Z,25.30
2017-11-09T14:06:58.312Z,25.73
2017-11-09T14:09:25.824Z,25.30
2017-11-09T14:11:53.226Z,23.03
2017-11-09T14:14:20.650Z,22.83
2017-11-09T14:16:48.093Z,25.73
2017-11-09T14:19:15.520Z,22.40
2017-11-09T14:21:42.990Z,22.20
2017-11-09T14:24:10.442Z,21.87
2017-11-09T14:26:37.861Z,24.23
2017-11-09T14:29:05.278Z,24.20
2017-11-09T14:31:32.755Z,20.30
2017-11-09T14:34:00.453Z,20.07
2017-11-09T14:36:27.838Z,21.93
2017-11-09T14:38:55.428Z,18.90
2017-11-09T14:41:23.260Z,21.63
2017-11-09T14:43:50.722Z,22.93
2017-11-09T14:46:18.156Z,21.00
2017-11-09T14:48:45.576Z,24.83
2017-11-09T14:51:13.030Z,23.00
2017-11-09T14:53:40.470Z,22.70
2017-11-09T14:56:07.909Z,18.47
2017-11-09T14:58:35.362Z,19.33
2017-11-09T15:01:02.825Z,18.50
2017-11-09T15:03:30.288Z,19.83
2017-11-09T15:05:57.743Z,16.30
2017-11-09T15:08:25.151Z,19.17
2017-11-09T15:10:52.692Z,16.37
2017-11-09T15:13:20.166Z,17.77
2017-11-09T15:15:53.204Z,16.60
2017-11-09T15:18:20.641Z,16.83
2017-11-09T15:20:48.057Z,17.93
2017-11-09T15:23:15.520Z,19.90
2017-11-09T15:25:42.922Z,18.37
2017-11-09T15:28:10.402Z,15.90
2017-11-09T15:30:38.036Z,19.27
2017-11-09T15:33:08.284Z,18.53
2017-11-09T15:35:36.618Z,19.07
2017-11-09T15:38:04.053Z,18.60
2017-11-09T15:40:31.456Z,22.80
2017-11-09T15:42:59.625Z,18.53
2017-11-09T15:45:27.055Z,17.97
2017-11-09T15:47:55.402Z,17.60
2017-11-09T15:50:23.314Z,19.47
2017-11-09T15:52:50.735Z,15.73
2017-11-09T15:55:18.503Z,20.67
2017-11-09T15:57:45.950Z,24.20
2017-11-09T16:00:13.401Z,17.43
2017-11-09T16:02:40.983Z,18.70
2017-11-09T16:05:08.456Z,20.30
2017-11-09T16:07:38.834Z,17.47
2017-11-09T16:10:06.265Z,19.53
2017-11-09T16:12:34.069Z,17.60
2017-11-09T16:15:01.498Z,18.50
2017-11-09T16:17:28.920Z,19.03
2017-11-09T16:19:56.338Z,20.60
2017-11-09T16:22:23.866Z,21.50
2017-11-09T16:24:53.223Z,20.53
2017-11-09T16:27:23.656Z,21.87
2017-11-09T16:29:51.085Z,21.73
2017-11-09T16:32:18.512Z,22.20
2017-11-09T16:34:45.920Z,22.77
2017-11-09T16:37:13.431Z,24.73
2017-11-09T16:39:40.880Z,20.77
2017-11-09T16:42:08.349Z,21.70
2017-11-09T16:44:35.826Z,19.20
2017-11-09T16:47:03.232Z,21.60
2017-11-09T16:49:30.765Z,21.20
2017-11-09T16:51:58.182Z,23.47
2017-11-09T16:54:25.621Z,25.80
2017-11-09T16:56:53.101Z,23.80
2017-11-09T16:59:21.326Z,26.60
2017-11-09T17:01:48.761Z,24.97
2017-11-09T17:06:49.917Z,27.20
2017-11-09T17:09:17.442Z,24.10
2017-11-09T17:11:44.869Z,26.23
2017-11-09T17:14:12.266Z,28.17
2017-11-09T17:16:39.701Z,26.33
2017-11-09T17:19:09.909Z,25.50
2017-11-09T17:21:37.396Z,26.40
2017-11-09T17:24:04.820Z,33.70
2017-11-09T17:26:32.241Z,29.30
2017-11-09T17:28:59.673Z,27.23
2017-11-09T17:31:27.725Z,30.10
2017-11-09T17:33:55.144Z,32.20
2017-11-09T17:36:22.543Z,31.50
2017-11-09T17:38:50.136Z,30.50
2017-11-09T17:41:17.542Z,25.43
2017-11-09T17:43:48.885Z,26.93
2017-11-09T17:46:17.168Z,26.07
2017-11-09T17:48:45.412Z,25.77
2017-11-09T17:51:13.629Z,29.77
2017-11-09T17:53:41.077Z,27.73
2017-11-09T17:56:08.484Z,25.90
2017-11-09T17:58:38.092Z,30.00
2017-11-09T18:01:05.540Z,26.37
2017-11-09T18:03:34.882Z,30.27
2017-11-09T18:06:02.337Z,27.37
2017-11-09T18:08:29.751Z,25.87
2017-11-09T18:10:57.204Z,24.83
2017-11-09T18:13:24.612Z,36.70
2017-11-09T18:15:52.093Z,31.90
2017-11-09T18:18:19.542Z,29.60
2017-11-09T18:20:47.979Z,32.00
2017-11-09T18:23:15.386Z,32.63
2017-11-09T18:25:42.843Z,36.43
2017-11-09T18:28:10.246Z,31.40
2017-11-09T18:30:37.659Z,40.13
2017-11-09T18:33:05.118Z,40.77
2017-11-09T18:35:32.516Z,41.63
2017-11-09T18:38:00.098Z,37.00
2017-11-09T18:40:27.510Z,34.47
2017-11-09T18:42:54.929Z,39.83
2017-11-09T18:45:22.337Z,34.07
2017-11-09T18:47:49.798Z,34.03
2017-11-09T18:50:17.216Z,36.67
2017-11-09T18:52:44.691Z,28.10
2017-11-09T18:55:12.176Z,28.77
2017-11-09T18:57:39.614Z,28.37
2017-11-09T19:00:07.041Z,26.60
2017-11-09T19:02:35.511Z,25.23
2017-11-09T19:05:02.990Z,27.87
2017-11-09T19:07:30.413Z,29.13
2017-11-09T19:09:57.859Z,29.00
2017-11-09T19:12:25.307Z,25.73
2017-11-09T19:14:52.850Z,28.23
2017-11-09T19:17:20.334Z,28.20
2017-11-09T19:19:47.797Z,26.77
2017-11-09T19:22:15.241Z,29.50
2017-11-09T19:24:42.688Z,33.60
2017-11-09T19:27:10.185Z,31.80
2017-11-09T19:29:38.340Z,35.87
2017-11-09T19:32:05.833Z,32.37
2017-11-09T19:34:33.336Z,27.20
2017-11-09T19:37:00.780Z,31.13
2017-11-09T19:39:28.190Z,27.43
2017-11-09T19:41:55.675Z,33.33
2017-11-09T19:44:23.088Z,29.63
2017-11-09T19:46:50.550Z,33.50
2017-11-09T19:49:17.953Z,26.40
2017-11-09T19:51:45.361Z,27.13
2017-11-09T19:54:12.800Z,27.83
2017-11-09T19:56:40.217Z,26.30
2017-11-09T19:59:08.263Z,23.53
2017-11-09T20:01:35.687Z,25.27
2017-11-09T20:04:03.123Z,23.23
2017-11-09T20:06:30.526Z,29.30
2017-11-09T20:08:57.972Z,29.40
2017-11-09T20:11:25.389Z,31.43
2017-11-09T20:13:52.839Z,30.27
2017-11-09T20:16:20.244Z,30.60
2017-11-09T20:18:47.710Z,33.93
2017-11-09T20:21:15.113Z,31.83
2017-11-09T20:23:42.516Z,27.80
2017-11-09T20:26:09.999Z,37.40
2017-11-09T20:28:38.241Z,42.47
2017-11-09T20:31:05.687Z,37.27
2017-11-09T20:33:35.026Z,30.53
2017-11-09T20:36:02.483Z,30.17
2017-11-09T20:38:29.886Z,26.60
2017-11-09T20:40:57.325Z,23.97
2017-11-09T20:43:24.750Z,25.80
2017-11-09T20:45:52.182Z,25.70
2017-11-09T20:48:19.598Z,28.17
2017-11-09T20:50:47.045Z,30.67
2017-11-09T20:53:14.453Z,29.03
2017-11-09T20:55:41.858Z,25.97
2017-11-09T20:58:09.310Z,30.90
2017-11-09T21:00:36.768Z,26.13
2017-11-09T21:03:04.221Z,32.00
2017-11-09T21:05:31.644Z,24.67
2017-11-09T21:07:59.136Z,27.00
2017-11-09T21:10:26.775Z,26.80
2017-11-09T21:12:54.228Z,31.43
2017-11-09T21:15:21.669Z,30.90
2017-11-09T21:17:49.106Z,27.60
2017-11-09T21:20:17.116Z,27.00
2017-11-09T21:22:44.542Z,28.23
2017-11-09T21:25:11.969Z,25.23
2017-11-09T21:27:39.384Z,28.80
2017-11-09T21:30:06.836Z,24.90
2017-11-09T21:32:34.233Z,28.37
2017-11-09T21:35:01.653Z,29.33
2017-11-09T21:37:29.058Z,28.57
2017-11-09T21:39:56.489Z,27.53
2017-11-09T21:42:23.895Z,34.63
2017-11-09T21:44:51.346Z,35.40
2017-11-09T21:47:18.741Z,39.80
2017-11-09T21:49:47.937Z,27.70
2017-11-09T21:52:15.365Z,34.20
2017-11-09T21:54:42.753Z,37.10
2017-11-09T21:57:10.183Z,30.97
2017-11-09T21:59:37.590Z,40.73
2017-11-09T22:02:05.020Z,36.00
2017-11-09T22:04:32.423Z,30.63
2017-11-09T22:06:59.885Z,29.73
2017-11-09T22:09:27.310Z,29.30
2017-11-09T22:11:54.744Z,30.93
2017-11-09T22:14:22.160Z,34.90
2017-11-09T22:16:49.643Z,34.17
2017-11-09T22:19:17.045Z,46.80
2017-11-09T22:21:44.440Z,49.10
2017-11-09T22:24:11.894Z,40.00
2017-11-09T22:26:39.309Z,46.73
2017-11-09T22:29:06.725Z,46.43
2017-11-09T22:31:34.133Z,37.33
2017-11-09T22:34:01.594Z,35.63
2017-11-09T22:36:28.987Z,39.13
2017-11-09T22:38:56.463Z,38.17
2017-11-09T22:41:23.854Z,38.27
2017-11-09T22:43:51.244Z,34.33
2017-11-09T22:46:18.674Z,36.10
2017-11-09T22:48:46.070Z,33.60
2017-11-09T22:51:13.507Z,34.00
2017-11-09T22:53:40.910Z,39.80
2017-11-09T22:56:08.330Z,34.37
2017-11-09T22:58:35.745Z,33.07
2017-11-09T23:01:03.174Z,37.20
2017-11-09T23:03:30.573Z,33.30
2017-11-09T23:05:58.009Z,30.30
2017-11-09T23:08:25.399Z,35.33
2017-11-09T23:10:52.813Z,33.43
2017-11-09T23:13:20.310Z,35.40
2017-11-09T23:15:47.724Z,32.77
2017-11-09T23:18:15.156Z,31.80
2017-11-09T23:20:42.575Z,34.60
2017-11-09T23:23:10.004Z,33.67
2017-11-09T23:25:37.396Z,34.87
2017-11-09T23:28:04.844Z,35.60
2017-11-09T23:30:32.253Z,36.40
2017-11-09T23:32:59.672Z,36.60
2017-11-09T23:35:27.113Z,30.40
2017-11-09T23:37:54.529Z,32.20
2017-11-09T23:40:21.974Z,32.70
2017-11-09T23:42:49.805Z,38.97
2017-11-09T23:45:17.222Z,33.37
2017-11-09T23:47:44.622Z,27.77
2017-11-09T23:50:12.063Z,33.27
2017-11-09T23:52:39.481Z,24.10
2017-11-09T23:55:06.980Z,26.07
2017-11-09T23:57:34.392Z,27.70
